PWSweather.com
Personal Weather Stations
Station Observations
EDELWEISS
Edelweiss Mazama, Winthrop, WA 98862

Edelweiss MazamaWinthrop, WA 98862

Lat: 48.55444, Lon: -120.33194

Elevation: 2376

Station Type: Davis Vantage Vue

http://www.otwc.net/weather/index.html

Latest ConditionsUpdated 6:45:01 PM PDT Friday, Oct 31, 2014
Currently Today's Max Today's Min Today's Average
Temperature 45.4°F7.4°C 48.4°F9.1°C 45.4°F7.4°C 47.1°F8.4°C
Dew Point 45.4°F7.4°C 48.4°F9.1°C 45.4°F7.4°C 47.1°F8.4°C
Winds Calm Calm Calm Calm - Calm Calm
Wind Gusts -- -- - -
Humidity 100% 100% 100% 100%
Pressure 29.80 in1009.1 mb 29.80 in1009.1 mb 29.77 in1008.1 mb -
Precipitation - 0.19 in4.8 mm - -
Hour Temp Dew Point Humidity Winds Wind Gusts Pressure Precip Precip Rate Daily Precip Total
04:55 PM 48.5°F9.2°C 48.5°F9.2°C 100% Calm Calm -- 29.77 in1008.1 mb 0.00 in0.0 mm 0.00 in/hr0.0 mm/hr 0.19 in4.8 mm
04:50 PM 48.5°F9.2°C 48.5°F9.2°C 100% Calm Calm -- 29.77 in1008.1 mb 0.00 in0.0 mm 0.00 in/hr0.0 mm/hr 0.19 in4.8 mm
04:45 PM 48.5°F9.2°C 48.5°F9.2°C 100% Calm Calm -- 29.77 in1008.1 mb 0.00 in0.0 mm 0.00 in/hr0.0 mm/hr 0.19 in4.8 mm
04:40 PM 48.5°F9.2°C 48.5°F9.2°C 100% Calm Calm -- 29.77 in1008.1 mb 0.00 in0.0 mm 0.00 in/hr0.0 mm/hr 0.19 in4.8 mm
04:35 PM 48.5°F9.2°C 48.5°F9.2°C 100% Calm Calm -- 29.78 in1008.5 mb 0.00 in0.0 mm 0.00 in/hr0.0 mm/hr 0.19 in4.8 mm
04:30 PM 48.6°F9.2°C 48.6°F9.2°C 100% Calm Calm -- 29.77 in1008.1 mb 0.00 in0.0 mm 0.00 in/hr0.0 mm/hr 0.19 in4.8 mm
04:25 PM 48.6°F9.2°C 48.6°F9.2°C 100% Calm Calm -- 29.76 in1007.8 mb 0.00 in0.0 mm 0.00 in/hr0.0 mm/hr 0.19 in4.8 mm
04:20 PM 48.6°F9.2°C 48.6°F9.2°C 100% Calm Calm -- 29.76 in1007.8 mb 0.00 in0.0 mm 0.00 in/hr0.0 mm/hr 0.19 in4.8 mm
04:15 PM 48.6°F9.2°C 48.6°F9.2°C 100% Calm Calm -- 29.77 in1008.1 mb 0.00 in0.0 mm 0.00 in/hr0.0 mm/hr 0.19 in4.8 mm
04:10 PM 48.6°F9.2°C 48.6°F9.2°C 100% Calm Calm -- 29.76 in1007.8 mb 0.00 in0.0 mm 0.00 in/hr0.0 mm/hr 0.19 in4.8 mm
04:05 PM 48.6°F9.2°C 48.6°F9.2°C 100% Calm Calm -- 29.75 in1007.5 mb 0.00 in0.0 mm 0.00 in/hr0.0 mm/hr 0.19 in4.8 mm
04:00 PM 48.7°F9.3°C 48.7°F9.3°C 100% Calm Calm -- 29.75 in1007.5 mb 0.00 in0.0 mm 0.00 in/hr0.0 mm/hr 0.19 in4.8 mm
03:55 PM 48.6°F9.2°C 48.6°F9.2°C 100% Calm Calm -- 29.75 in1007.5 mb 0.00 in0.0 mm 0.00 in/hr0.0 mm/hr 0.19 in4.8 mm
03:50 PM 48.6°F9.2°C 48.6°F9.2°C 100% Calm Calm -- 29.75 in1007.5 mb 0.00 in0.0 mm 0.00 in/hr0.0 mm/hr 0.19 in4.8 mm
03:45 PM 48.7°F9.3°C 48.7°F9.3°C 100% Calm Calm -- 29.74 in1007.1 mb 0.00 in0.0 mm 0.00 in/hr0.0 mm/hr 0.19 in4.8 mm
03:40 PM 48.7°F9.3°C 48.7°F9.3°C 100% Calm Calm -- 29.75 in1007.5 mb 0.00 in0.0 mm 0.00 in/hr0.0 mm/hr 0.19 in4.8 mm
03:35 PM 48.7°F9.3°C 48.7°F9.3°C 100% Calm Calm -- 29.76 in1007.8 mb 0.00 in0.0 mm 0.00 in/hr0.0 mm/hr 0.19 in4.8 mm
03:30 PM 48.7°F9.3°C 48.7°F9.3°C 100% Calm Calm -- 29.76 in1007.8 mb 0.00 in0.0 mm 0.00 in/hr0.0 mm/hr 0.19 in4.8 mm
03:25 PM 48.7°F9.3°C 48.7°F9.3°C 100% Calm Calm -- 29.75 in1007.5 mb 0.00 in0.0 mm 0.00 in/hr0.0 mm/hr 0.19 in4.8 mm
03:20 PM 48.7°F9.3°C 48.7°F9.3°C 100% Calm Calm -- 29.76 in1007.8 mb 0.00 in0.0 mm 0.00 in/hr0.0 mm/hr 0.19 in4.8 mm
03:15 PM 48.7°F9.3°C 48.7°F9.3°C 100% Calm Calm -- 29.76 in1007.8 mb 0.00 in0.0 mm 0.00 in/hr0.0 mm/hr 0.19 in4.8 mm
03:10 PM 48.7°F9.3°C 48.7°F9.3°C 100% Calm Calm -- 29.75 in1007.5 mb 0.00 in0.0 mm 0.00 in/hr0.0 mm/hr 0.19 in4.8 mm
03:05 PM 48.5°F9.2°C 48.5°F9.2°C 100% Calm Calm -- 29.75 in1007.5 mb 0.00 in0.0 mm 0.00 in/hr0.0 mm/hr 0.19 in4.8 mm
03:00 PM 48.5°F9.2°C 48.5°F9.2°C 100% Calm Calm -- 29.75 in1007.5 mb 0.00 in0.0 mm 0.00 in/hr0.0 mm/hr 0.19 in4.8 mm
02:55 PM 48.5°F9.2°C 48.5°F9.2°C 100% Calm Calm -- 29.75 in1007.5 mb 0.00 in0.0 mm 0.00 in/hr0.0 mm/hr 0.19 in4.8 mm
02:50 PM 48.4°F9.1°C 48.4°F9.1°C 100% Calm Calm -- 29.75 in1007.5 mb 0.00 in0.0 mm 0.00 in/hr0.0 mm/hr 0.19 in4.8 mm
02:45 PM 48.4°F9.1°C 48.4°F9.1°C 100% Calm Calm -- 29.74 in1007.1 mb 0.00 in0.0 mm 0.00 in/hr0.0 mm/hr 0.19 in4.8 mm
02:40 PM 48.3°F9.1°C 48.3°F9.1°C 100% Calm Calm -- 29.74 in1007.1 mb 0.01 in0.3 mm 0.00 in/hr0.0 mm/hr 0.19 in4.8 mm
02:35 PM 48.3°F9.1°C 48.3°F9.1°C 100% Calm Calm -- 29.74 in1007.1 mb 0.02 in0.5 mm 0.00 in/hr0.0 mm/hr 0.19 in4.8 mm
02:30 PM 48.3°F9.1°C 48.0°F8.9°C 99% Calm Calm -- 29.74 in1007.1 mb 0.03 in0.8 mm 0.00 in/hr0.0 mm/hr 0.19 in4.8 mm
02:25 PM 48.3°F9.1°C 48.0°F8.9°C 99% Calm Calm -- 29.74 in1007.1 mb 0.03 in0.8 mm 0.00 in/hr0.0 mm/hr 0.19 in4.8 mm
02:20 PM 48.2°F9.0°C 47.9°F8.8°C 99% Calm Calm -- 29.75 in1007.5 mb 0.03 in0.8 mm 0.00 in/hr0.0 mm/hr 0.19 in4.8 mm
02:15 PM 48.2°F9.0°C 47.9°F8.8°C 99% Calm Calm -- 29.75 in1007.5 mb 0.03 in0.8 mm 0.00 in/hr0.0 mm/hr 0.19 in4.8 mm
02:10 PM 48.3°F9.1°C 48.0°F8.9°C 99% Calm Calm -- 29.75 in1007.5 mb 0.03 in0.8 mm 0.00 in/hr0.0 mm/hr 0.19 in4.8 mm
02:05 PM 48.4°F9.1°C 48.1°F8.9°C 99% Calm Calm -- 29.75 in1007.5 mb 0.03 in0.8 mm 0.00 in/hr0.0 mm/hr 0.19 in4.8 mm
02:00 PM 48.4°F9.1°C 48.1°F8.9°C 99% Calm Calm -- 29.75 in1007.5 mb 0.03 in0.8 mm 0.00 in/hr0.0 mm/hr 0.19 in4.8 mm
01:55 PM 48.2°F9.0°C 47.9°F8.8°C 99% Calm Calm -- 29.75 in1007.5 mb 0.03 in0.8 mm 0.00 in/hr0.0 mm/hr 0.19 in4.8 mm
01:50 PM 48.0°F8.9°C 47.7°F8.7°C 99% Calm Calm 1.0 mph1.6 kmh 29.75 in1007.5 mb 0.03 in0.8 mm 0.00 in/hr0.0 mm/hr 0.19 in4.8 mm
01:45 PM 47.8°F8.8°C 47.5°F8.6°C 99% Calm Calm 2.0 mph3.2 kmh 29.75 in1007.5 mb 0.03 in0.8 mm 0.12 in/hr3.0 mm/hr 0.19 in4.8 mm
01:40 PM 47.8°F8.8°C 47.5°F8.6°C 99% Calm Calm 2.0 mph3.2 kmh 29.75 in1007.5 mb 0.02 in0.5 mm 0.12 in/hr3.0 mm/hr 0.18 in4.6 mm
01:35 PM 47.9°F8.8°C 47.6°F8.7°C 99% Calm Calm 1.0 mph1.6 kmh 29.76 in1007.8 mb 0.01 in0.3 mm 0.12 in/hr3.0 mm/hr 0.17 in4.3 mm
01:30 PM 47.9°F8.8°C 47.6°F8.7°C 99% Calm Calm 1.0 mph1.6 kmh 29.75 in1007.5 mb 0.00 in0.0 mm 0.00 in/hr0.0 mm/hr 0.16 in4.1 mm
01:25 PM 47.7°F8.7°C 47.4°F8.6°C 99% Calm Calm 1.0 mph1.6 kmh 29.75 in1007.5 mb 0.00 in0.0 mm 0.00 in/hr0.0 mm/hr 0.16 in4.1 mm
01:20 PM 47.6°F8.7°C 47.3°F8.5°C 99% Calm Calm 1.0 mph1.6 kmh 29.75 in1007.5 mb 0.00 in0.0 mm 0.00 in/hr0.0 mm/hr 0.16 in4.1 mm
01:15 PM 47.7°F8.7°C 47.4°F8.6°C 99% Calm Calm 3.0 mph4.8 kmh 29.74 in1007.1 mb 0.00 in0.0 mm 0.00 in/hr0.0 mm/hr 0.16 in4.1 mm
01:10 PM 47.5°F8.6°C 47.2°F8.4°C 99% Calm Calm 3.0 mph4.8 kmh 29.74 in1007.1 mb 0.00 in0.0 mm 0.00 in/hr0.0 mm/hr 0.16 in4.1 mm
01:05 PM 47.3°F8.5°C 47.0°F8.3°C 99% Calm Calm -- 29.73 in1006.8 mb 0.00 in0.0 mm 0.00 in/hr0.0 mm/hr 0.16 in4.1 mm
01:00 PM 47.2°F8.4°C 46.9°F8.3°C 99% Calm Calm -- 29.74 in1007.1 mb 0.00 in0.0 mm 0.00 in/hr0.0 mm/hr 0.16 in4.1 mm
12:55 PM 47.2°F8.4°C 46.9°F8.3°C 99% Calm Calm -- 29.74 in1007.1 mb 0.00 in0.0 mm 0.00 in/hr0.0 mm/hr 0.16 in4.1 mm
12:50 PM 47.2°F8.4°C 46.9°F8.3°C 99% Calm Calm -- 29.74 in1007.1 mb 0.00 in0.0 mm 0.00 in/hr0.0 mm/hr 0.16 in4.1 mm
12:45 PM 47.2°F8.4°C 46.9°F8.3°C 99% Calm Calm -- 29.74 in1007.1 mb 0.00 in0.0 mm 0.00 in/hr0.0 mm/hr 0.16 in4.1 mm
12:40 PM 47.2°F8.4°C 46.9°F8.3°C 99% Calm Calm -- 29.74 in1007.1 mb 0.00 in0.0 mm 0.00 in/hr0.0 mm/hr 0.16 in4.1 mm
12:35 PM 47.1°F8.4°C 46.8°F8.2°C 99% Calm Calm -- 29.74 in1007.1 mb 0.00 in0.0 mm 0.00 in/hr0.0 mm/hr 0.16 in4.1 mm
12:30 PM 47.1°F8.4°C 46.8°F8.2°C 99% Calm Calm -- 29.74 in1007.1 mb 0.00 in0.0 mm 0.00 in/hr0.0 mm/hr 0.16 in4.1 mm
12:25 PM 47.1°F8.4°C 46.8°F8.2°C 99% Calm Calm 2.0 mph3.2 kmh 29.75 in1007.5 mb 0.00 in0.0 mm 0.00 in/hr0.0 mm/hr 0.16 in4.1 mm
12:20 PM 47.2°F8.4°C 46.9°F8.3°C 99% Calm Calm 2.0 mph3.2 kmh 29.74 in1007.1 mb 0.01 in0.3 mm 0.00 in/hr0.0 mm/hr 0.16 in4.1 mm
12:15 PM 46.9°F8.3°C 46.6°F8.1°C 99% Calm Calm -- 29.74 in1007.1 mb 0.01 in0.3 mm 0.00 in/hr0.0 mm/hr 0.16 in4.1 mm
12:10 PM 46.7°F8.2°C 46.7°F8.2°C 100% Calm Calm -- 29.74 in1007.1 mb 0.01 in0.3 mm 0.00 in/hr0.0 mm/hr 0.16 in4.1 mm
12:05 PM 46.6°F8.1°C 46.6°F8.1°C 100% Calm Calm -- 29.75 in1007.5 mb 0.01 in0.3 mm 0.00 in/hr0.0 mm/hr 0.16 in4.1 mm
12:00 PM 46.5°F8.1°C 46.5°F8.1°C 100% Calm Calm -- 29.75 in1007.5 mb 0.01 in0.3 mm 0.00 in/hr0.0 mm/hr 0.16 in4.1 mm
11:55 AM 46.5°F8.1°C 46.5°F8.1°C 100% Calm Calm -- 29.75 in1007.5 mb 0.01 in0.3 mm 0.00 in/hr0.0 mm/hr 0.16 in4.1 mm
11:50 AM 46.4°F8.0°C 46.1°F7.8°C 99% Calm Calm 1.0 mph1.6 kmh 29.75 in1007.5 mb 0.01 in0.3 mm 0.00 in/hr0.0 mm/hr 0.16 in4.1 mm
11:45 AM 46.4°F8.0°C 46.1°F7.8°C 99% Calm Calm 1.0 mph1.6 kmh 29.74 in1007.1 mb 0.01 in0.3 mm 0.00 in/hr0.0 mm/hr 0.16 in4.1 mm
11:40 AM 46.5°F8.1°C 46.2°F7.9°C 99% Calm Calm 1.0 mph1.6 kmh 29.74 in1007.1 mb 0.01 in0.3 mm 0.00 in/hr0.0 mm/hr 0.16 in4.1 mm
11:35 AM 46.4°F8.0°C 46.4°F8.0°C 100% Calm Calm 1.0 mph1.6 kmh 29.74 in1007.1 mb 0.01 in0.3 mm 0.00 in/hr0.0 mm/hr 0.16 in4.1 mm
11:30 AM 46.3°F7.9°C 46.3°F7.9°C 100% Calm Calm 3.0 mph4.8 kmh 29.74 in1007.1 mb 0.01 in0.3 mm 0.00 in/hr0.0 mm/hr 0.16 in4.1 mm
11:25 AM 46.3°F7.9°C 46.3°F7.9°C 100% Calm Calm 3.0 mph4.8 kmh 29.74 in1007.1 mb 0.01 in0.3 mm 0.12 in/hr3.0 mm/hr 0.16 in4.1 mm
11:20 AM 46.1°F7.8°C 46.1°F7.8°C 100% Calm Calm -- 29.75 in1007.5 mb 0.00 in0.0 mm 0.00 in/hr0.0 mm/hr 0.15 in3.8 mm
11:15 AM 46.0°F7.8°C 46.0°F7.8°C 100% Calm Calm -- 29.74 in1007.1 mb 0.00 in0.0 mm 0.00 in/hr0.0 mm/hr 0.15 in3.8 mm
11:10 AM 45.9°F7.7°C 45.9°F7.7°C 100% Calm Calm -- 29.75 in1007.5 mb 0.00 in0.0 mm 0.00 in/hr0.0 mm/hr 0.15 in3.8 mm
11:05 AM 45.8°F7.7°C 45.8°F7.7°C 100% Calm Calm -- 29.74 in1007.1 mb 0.00 in0.0 mm 0.00 in/hr0.0 mm/hr 0.15 in3.8 mm
11:00 AM 45.9°F7.7°C 45.9°F7.7°C 100% Calm Calm 1.0 mph1.6 kmh 29.75 in1007.5 mb 0.00 in0.0 mm 0.00 in/hr0.0 mm/hr 0.15 in3.8 mm
10:55 AM 45.9°F7.7°C 45.9°F7.7°C 100% Calm Calm 1.0 mph1.6 kmh 29.75 in1007.5 mb 0.00 in0.0 mm 0.00 in/hr0.0 mm/hr 0.15 in3.8 mm
10:50 AM 45.9°F7.7°C 45.9°F7.7°C 100% Calm Calm 1.0 mph1.6 kmh 29.75 in1007.5 mb 0.00 in0.0 mm 0.00 in/hr0.0 mm/hr 0.15 in3.8 mm
10:45 AM 46.1°F7.8°C 46.1°F7.8°C 100% Calm Calm 1.0 mph1.6 kmh 29.75 in1007.5 mb 0.00 in0.0 mm 0.00 in/hr0.0 mm/hr 0.15 in3.8 mm
10:40 AM 46.3°F7.9°C 46.0°F7.8°C 99% Calm Calm 3.0 mph4.8 kmh 29.75 in1007.5 mb 0.00 in0.0 mm 0.00 in/hr0.0 mm/hr 0.15 in3.8 mm
10:35 AM 46.6°F8.1°C 46.3°F7.9°C 99% Calm Calm 3.0 mph4.8 kmh 29.75 in1007.5 mb 0.00 in0.0 mm 0.00 in/hr0.0 mm/hr 0.15 in3.8 mm
10:30 AM 46.3°F7.9°C 46.0°F7.8°C 99% Calm Calm -- 29.75 in1007.5 mb 0.00 in0.0 mm 0.00 in/hr0.0 mm/hr 0.15 in3.8 mm
10:25 AM 45.8°F7.7°C 45.8°F7.7°C 100% Calm Calm -- 29.75 in1007.5 mb 0.00 in0.0 mm 0.00 in/hr0.0 mm/hr 0.15 in3.8 mm
10:23 AM 45.7°F7.6°C 45.7°F7.6°C 100% Calm Calm -- 29.76 in1007.8 mb 0.00 in0.0 mm 0.00 in/hr0.0 mm/hr 0.15 in3.8 mm
10:20 AM 45.7°F7.6°C 45.7°F7.6°C 100% Calm Calm -- 29.76 in1007.8 mb 0.00 in0.0 mm 0.00 in/hr0.0 mm/hr 0.15 in3.8 mm
10:15 AM 45.8°F7.7°C 45.8°F7.7°C 100% Calm Calm -- 29.76 in1007.8 mb 0.00 in0.0 mm 0.00 in/hr0.0 mm/hr 0.15 in3.8 mm
10:10 AM 45.6°F7.6°C 45.6°F7.6°C 100% Calm Calm -- 29.75 in1007.5 mb 0.00 in0.0 mm 0.00 in/hr0.0 mm/hr 0.15 in3.8 mm
10:05 AM 45.5°F7.5°C 45.5°F7.5°C 100% Calm Calm -- 29.75 in1007.5 mb 0.00 in0.0 mm 0.00 in/hr0.0 mm/hr 0.15 in3.8 mm
10:00 AM 45.5°F7.5°C 45.5°F7.5°C 100% Calm Calm -- 29.75 in1007.5 mb 0.01 in0.3 mm 0.00 in/hr0.0 mm/hr 0.15 in3.8 mm
09:55 AM 45.5°F7.5°C 45.5°F7.5°C 100% Calm Calm -- 29.75 in1007.5 mb 0.01 in0.3 mm 0.00 in/hr0.0 mm/hr 0.15 in3.8 mm
09:50 AM 45.5°F7.5°C 45.5°F7.5°C 100% Calm Calm -- 29.75 in1007.5 mb 0.01 in0.3 mm 0.00 in/hr0.0 mm/hr 0.15 in3.8 mm
09:45 AM 45.5°F7.5°C 45.5°F7.5°C 100% Calm Calm -- 29.75 in1007.5 mb 0.01 in0.3 mm 0.00 in/hr0.0 mm/hr 0.15 in3.8 mm
09:40 AM 45.5°F7.5°C 45.5°F7.5°C 100% Calm Calm -- 29.75 in1007.5 mb 0.01 in0.3 mm 0.00 in/hr0.0 mm/hr 0.15 in3.8 mm
09:35 AM 45.4°F7.4°C 45.4°F7.4°C 100% Calm Calm -- 29.75 in1007.5 mb 0.01 in0.3 mm 0.00 in/hr0.0 mm/hr 0.15 in3.8 mm
09:30 AM 45.4°F7.4°C 45.4°F7.4°C 100% Calm Calm -- 29.75 in1007.5 mb 0.01 in0.3 mm 0.00 in/hr0.0 mm/hr 0.15 in3.8 mm
09:25 AM 45.3°F7.4°C 45.3°F7.4°C 100% Calm Calm -- 29.75 in1007.5 mb 0.01 in0.3 mm 0.00 in/hr0.0 mm/hr 0.15 in3.8 mm
09:20 AM 45.3°F7.4°C 45.3°F7.4°C 100% Calm Calm -- 29.75 in1007.5 mb 0.01 in0.3 mm 0.00 in/hr0.0 mm/hr 0.15 in3.8 mm
09:15 AM 45.2°F7.3°C 45.2°F7.3°C 100% Calm Calm -- 29.75 in1007.5 mb 0.01 in0.3 mm 0.00 in/hr0.0 mm/hr 0.15 in3.8 mm
09:10 AM 45.2°F7.3°C 45.2°F7.3°C 100% Calm Calm -- 29.75 in1007.5 mb 0.01 in0.3 mm 0.12 in/hr3.0 mm/hr 0.15 in3.8 mm
09:05 AM 45.2°F7.3°C 45.2°F7.3°C 100% Calm Calm -- 29.75 in1007.5 mb 0.00 in0.0 mm 0.00 in/hr0.0 mm/hr 0.14 in3.6 mm
09:00 AM 45.2°F7.3°C 45.2°F7.3°C 100% Calm Calm -- 29.75 in1007.5 mb 0.00 in0.0 mm 0.00 in/hr0.0 mm/hr 0.14 in3.6 mm
08:55 AM 45.2°F7.3°C 45.2°F7.3°C 100% Calm Calm -- 29.75 in1007.5 mb 0.00 in0.0 mm 0.00 in/hr0.0 mm/hr 0.14 in3.6 mm
08:50 AM 45.3°F7.4°C 45.3°F7.4°C 100% Calm Calm -- 29.75 in1007.5 mb 0.00 in0.0 mm 0.00 in/hr0.0 mm/hr 0.14 in3.6 mm
08:45 AM 45.2°F7.3°C 45.2°F7.3°C 100% Calm Calm -- 29.75 in1007.5 mb 0.00 in0.0 mm 0.00 in/hr0.0 mm/hr 0.14 in3.6 mm
08:40 AM 45.3°F7.4°C 45.3°F7.4°C 100% Calm Calm -- 29.76 in1007.8 mb 0.00 in0.0 mm 0.00 in/hr0.0 mm/hr 0.14 in3.6 mm
08:35 AM 45.2°F7.3°C 45.2°F7.3°C 100% Calm Calm -- 29.76 in1007.8 mb 0.00 in0.0 mm 0.00 in/hr0.0 mm/hr 0.14 in3.6 mm
08:30 AM 45.2°F7.3°C 45.2°F7.3°C 100% Calm Calm -- 29.76 in1007.8 mb 0.00 in0.0 mm 0.00 in/hr0.0 mm/hr 0.14 in3.6 mm
08:25 AM 45.2°F7.3°C 45.2°F7.3°C 100% Calm Calm -- 29.76 in1007.8 mb 0.00 in0.0 mm 0.00 in/hr0.0 mm/hr 0.14 in3.6 mm
08:20 AM 45.2°F7.3°C 45.2°F7.3°C 100% Calm Calm -- 29.76 in1007.8 mb 0.00 in0.0 mm 0.00 in/hr0.0 mm/hr 0.14 in3.6 mm
08:15 AM 45.2°F7.3°C 45.2°F7.3°C 100% Calm Calm -- 29.76 in1007.8 mb 0.00 in0.0 mm 0.00 in/hr0.0 mm/hr 0.14 in3.6 mm
08:10 AM 45.1°F7.3°C 45.1°F7.3°C 100% Calm Calm -- 29.76 in1007.8 mb 0.00 in0.0 mm 0.00 in/hr0.0 mm/hr 0.14 in3.6 mm
08:05 AM 45.1°F7.3°C 45.1°F7.3°C 100% Calm Calm -- 29.76 in1007.8 mb 0.00 in0.0 mm 0.00 in/hr0.0 mm/hr 0.14 in3.6 mm
08:00 AM 45.2°F7.3°C 45.2°F7.3°C 100% Calm Calm -- 29.75 in1007.5 mb 0.00 in0.0 mm 0.00 in/hr0.0 mm/hr 0.14 in3.6 mm
07:55 AM 45.2°F7.3°C 45.2°F7.3°C 100% Calm Calm -- 29.75 in1007.5 mb 0.00 in0.0 mm 0.00 in/hr0.0 mm/hr 0.14 in3.6 mm
07:50 AM 45.2°F7.3°C 45.2°F7.3°C 100% Calm Calm -- 29.75 in1007.5 mb 0.00 in0.0 mm 0.00 in/hr0.0 mm/hr 0.14 in3.6 mm
07:45 AM 45.2°F7.3°C 45.2°F7.3°C 100% Calm Calm -- 29.75 in1007.5 mb 0.00 in0.0 mm 0.00 in/hr0.0 mm/hr 0.14 in3.6 mm
07:40 AM 45.2°F7.3°C 45.2°F7.3°C 100% Calm Calm -- 29.75 in1007.5 mb 0.00 in0.0 mm 0.00 in/hr0.0 mm/hr 0.14 in3.6 mm
07:35 AM 45.2°F7.3°C 45.2°F7.3°C 100% Calm Calm -- 29.75 in1007.5 mb 0.00 in0.0 mm 0.00 in/hr0.0 mm/hr 0.14 in3.6 mm
07:30 AM 45.2°F7.3°C 45.2°F7.3°C 100% Calm Calm -- 29.75 in1007.5 mb 0.00 in0.0 mm 0.00 in/hr0.0 mm/hr 0.14 in3.6 mm
07:25 AM 45.2°F7.3°C 45.2°F7.3°C 100% Calm Calm -- 29.75 in1007.5 mb 0.00 in0.0 mm 0.00 in/hr0.0 mm/hr 0.14 in3.6 mm
07:20 AM 45.2°F7.3°C 45.2°F7.3°C 100% Calm Calm -- 29.75 in1007.5 mb 0.00 in0.0 mm 0.00 in/hr0.0 mm/hr 0.14 in3.6 mm
07:15 AM 45.2°F7.3°C 45.2°F7.3°C 100% Calm Calm -- 29.75 in1007.5 mb 0.00 in0.0 mm 0.00 in/hr0.0 mm/hr 0.14 in3.6 mm
07:10 AM 45.2°F7.3°C 45.2°F7.3°C 100% Calm Calm -- 29.75 in1007.5 mb 0.00 in0.0 mm 0.00 in/hr0.0 mm/hr 0.14 in3.6 mm
07:05 AM 45.2°F7.3°C 45.2°F7.3°C 100% Calm Calm -- 29.75 in1007.5 mb 0.00 in0.0 mm 0.00 in/hr0.0 mm/hr 0.14 in3.6 mm
07:00 AM 45.2°F7.3°C 45.2°F7.3°C 100% Calm Calm -- 29.76 in1007.8 mb 0.00 in0.0 mm 0.00 in/hr0.0 mm/hr 0.14 in3.6 mm
06:55 AM 45.3°F7.4°C 45.3°F7.4°C 100% Calm Calm -- 29.76 in1007.8 mb 0.00 in0.0 mm 0.00 in/hr0.0 mm/hr 0.14 in3.6 mm
06:50 AM 45.3°F7.4°C 45.3°F7.4°C 100% Calm Calm -- 29.76 in1007.8 mb 0.00 in0.0 mm 0.00 in/hr0.0 mm/hr 0.14 in3.6 mm
06:45 AM 45.3°F7.4°C 45.3°F7.4°C 100% Calm Calm -- 29.76 in1007.8 mb 0.00 in0.0 mm 0.00 in/hr0.0 mm/hr 0.14 in3.6 mm
06:40 AM 45.3°F7.4°C 45.3°F7.4°C 100% Calm Calm -- 29.76 in1007.8 mb 0.00 in0.0 mm 0.00 in/hr0.0 mm/hr 0.14 in3.6 mm
06:35 AM 45.3°F7.4°C 45.3°F7.4°C 100% Calm Calm -- 29.77 in1008.1 mb 0.01 in0.3 mm 0.00 in/hr0.0 mm/hr 0.14 in3.6 mm
06:30 AM 45.2°F7.3°C 45.2°F7.3°C 100% Calm Calm -- 29.77 in1008.1 mb 0.01 in0.3 mm 0.00 in/hr0.0 mm/hr 0.14 in3.6 mm
06:25 AM 45.3°F7.4°C 45.3°F7.4°C 100% Calm Calm -- 29.77 in1008.1 mb 0.01 in0.3 mm 0.00 in/hr0.0 mm/hr 0.14 in3.6 mm
06:20 AM 45.2°F7.3°C 45.2°F7.3°C 100% Calm Calm -- 29.77 in1008.1 mb 0.01 in0.3 mm 0.00 in/hr0.0 mm/hr 0.14 in3.6 mm
06:15 AM 45.2°F7.3°C 45.2°F7.3°C 100% Calm Calm -- 29.77 in1008.1 mb 0.01 in0.3 mm 0.00 in/hr0.0 mm/hr 0.14 in3.6 mm
06:10 AM 45.2°F7.3°C 45.2°F7.3°C 100% Calm Calm -- 29.77 in1008.1 mb 0.01 in0.3 mm 0.00 in/hr0.0 mm/hr 0.14 in3.6 mm
06:05 AM 45.2°F7.3°C 45.2°F7.3°C 100% Calm Calm -- 29.77 in1008.1 mb 0.01 in0.3 mm 0.00 in/hr0.0 mm/hr 0.14 in3.6 mm
06:00 AM 45.2°F7.3°C 45.2°F7.3°C 100% Calm Calm -- 29.77 in1008.1 mb 0.02 in0.5 mm 0.00 in/hr0.0 mm/hr 0.14 in3.6 mm
05:55 AM 45.2°F7.3°C 45.2°F7.3°C 100% Calm Calm -- 29.78 in1008.5 mb 0.02 in0.5 mm 0.00 in/hr0.0 mm/hr 0.14 in3.6 mm
05:50 AM 45.2°F7.3°C 45.2°F7.3°C 100% Calm Calm -- 29.77 in1008.1 mb 0.02 in0.5 mm 0.00 in/hr0.0 mm/hr 0.14 in3.6 mm
05:45 AM 45.2°F7.3°C 45.2°F7.3°C 100% Calm Calm -- 29.77 in1008.1 mb 0.02 in0.5 mm 0.00 in/hr0.0 mm/hr 0.14 in3.6 mm
05:40 AM 45.2°F7.3°C 45.2°F7.3°C 100% Calm Calm -- 29.77 in1008.1 mb 0.02 in0.5 mm 0.12 in/hr3.0 mm/hr 0.14 in3.6 mm
05:35 AM 45.2°F7.3°C 45.2°F7.3°C 100% Calm Calm -- 29.78 in1008.5 mb 0.01 in0.3 mm 0.00 in/hr0.0 mm/hr 0.13 in3.3 mm
05:30 AM 45.2°F7.3°C 45.2°F7.3°C 100% Calm Calm -- 29.78 in1008.5 mb 0.01 in0.3 mm 0.00 in/hr0.0 mm/hr 0.13 in3.3 mm
05:25 AM 45.2°F7.3°C 45.2°F7.3°C 100% Calm Calm -- 29.78 in1008.5 mb 0.01 in0.3 mm 0.00 in/hr0.0 mm/hr 0.13 in3.3 mm
05:20 AM 45.3°F7.4°C 45.3°F7.4°C 100% Calm Calm -- 29.78 in1008.5 mb 0.01 in0.3 mm 0.00 in/hr0.0 mm/hr 0.13 in3.3 mm
05:15 AM 45.5°F7.5°C 45.5°F7.5°C 100% Calm Calm -- 29.78 in1008.5 mb 0.01 in0.3 mm 0.00 in/hr0.0 mm/hr 0.13 in3.3 mm
05:10 AM 45.5°F7.5°C 45.5°F7.5°C 100% Calm Calm -- 29.78 in1008.5 mb 0.01 in0.3 mm 0.00 in/hr0.0 mm/hr 0.13 in3.3 mm
05:05 AM 45.5°F7.5°C 45.5°F7.5°C 100% Calm Calm -- 29.78 in1008.5 mb 0.01 in0.3 mm 0.00 in/hr0.0 mm/hr 0.13 in3.3 mm
05:00 AM 45.4°F7.4°C 45.4°F7.4°C 100% Calm Calm -- 29.78 in1008.5 mb 0.01 in0.3 mm 0.00 in/hr0.0 mm/hr 0.12 in3.0 mm
04:55 AM 45.4°F7.4°C 45.4°F7.4°C 100% Calm Calm -- 29.79 in1008.8 mb 0.01 in0.3 mm 0.00 in/hr0.0 mm/hr 0.12 in3.0 mm
04:50 AM 45.4°F7.4°C 45.4°F7.4°C 100% Calm Calm -- 29.79 in1008.8 mb 0.01 in0.3 mm 0.00 in/hr0.0 mm/hr 0.12 in3.0 mm
04:45 AM 45.4°F7.4°C 45.4°F7.4°C 100% Calm Calm -- 29.79 in1008.8 mb 0.01 in0.3 mm 0.00 in/hr0.0 mm/hr 0.12 in3.0 mm
04:40 AM 45.4°F7.4°C 45.4°F7.4°C 100% Calm Calm -- 29.79 in1008.8 mb 0.01 in0.3 mm 0.00 in/hr0.0 mm/hr 0.12 in3.0 mm
04:35 AM 45.4°F7.4°C 45.4°F7.4°C 100% Calm Calm -- 29.79 in1008.8 mb 0.01 in0.3 mm 0.00 in/hr0.0 mm/hr 0.12 in3.0 mm
04:30 AM 45.3°F7.4°C 45.3°F7.4°C 100% Calm Calm -- 29.79 in1008.8 mb 0.01 in0.3 mm 0.00 in/hr0.0 mm/hr 0.12 in3.0 mm
04:25 AM 45.3°F7.4°C 45.3°F7.4°C 100% Calm Calm -- 29.79 in1008.8 mb 0.01 in0.3 mm 0.00 in/hr0.0 mm/hr 0.12 in3.0 mm
04:20 AM 45.3°F7.4°C 45.3°F7.4°C 100% Calm Calm -- 29.79 in1008.8 mb 0.02 in0.5 mm 0.00 in/hr0.0 mm/hr 0.12 in3.0 mm
04:15 AM 45.3°F7.4°C 45.3°F7.4°C 100% Calm Calm -- 29.79 in1008.8 mb 0.02 in0.5 mm 0.00 in/hr0.0 mm/hr 0.12 in3.0 mm
04:10 AM 45.3°F7.4°C 45.3°F7.4°C 100% Calm Calm -- 29.79 in1008.8 mb 0.02 in0.5 mm 0.00 in/hr0.0 mm/hr 0.12 in3.0 mm
04:05 AM 45.3°F7.4°C 45.3°F7.4°C 100% Calm Calm -- 29.79 in1008.8 mb 0.02 in0.5 mm 0.12 in/hr3.0 mm/hr 0.12 in3.0 mm
04:00 AM 45.2°F7.3°C 45.2°F7.3°C 100% Calm Calm -- 29.80 in1009.1 mb 0.01 in0.3 mm 0.00 in/hr0.0 mm/hr 0.11 in2.8 mm
03:55 AM 45.2°F7.3°C 45.2°F7.3°C 100% Calm Calm -- 29.80 in1009.1 mb 0.02 in0.5 mm 0.00 in/hr0.0 mm/hr 0.11 in2.8 mm
03:50 AM 45.3°F7.4°C 45.3°F7.4°C 100% Calm Calm -- 29.80 in1009.1 mb 0.02 in0.5 mm 0.00 in/hr0.0 mm/hr 0.11 in2.8 mm
03:45 AM 45.2°F7.3°C 45.2°F7.3°C 100% Calm Calm -- 29.80 in1009.1 mb 0.03 in0.8 mm 0.00 in/hr0.0 mm/hr 0.11 in2.8 mm
03:40 AM 45.2°F7.3°C 45.2°F7.3°C 100% Calm Calm -- 29.80 in1009.1 mb 0.03 in0.8 mm 0.00 in/hr0.0 mm/hr 0.11 in2.8 mm
03:35 AM 45.3°F7.4°C 45.3°F7.4°C 100% Calm Calm -- 29.80 in1009.1 mb 0.03 in0.8 mm 0.00 in/hr0.0 mm/hr 0.11 in2.8 mm
03:30 AM 45.3°F7.4°C 45.3°F7.4°C 100% Calm Calm -- 29.80 in1009.1 mb 0.04 in1.0 mm 0.00 in/hr0.0 mm/hr 0.11 in2.8 mm
03:25 AM 45.3°F7.4°C 45.3°F7.4°C 100% Calm Calm -- 29.80 in1009.1 mb 0.04 in1.0 mm 0.12 in/hr3.0 mm/hr 0.11 in2.8 mm
03:20 AM 45.3°F7.4°C 45.3°F7.4°C 100% Calm Calm -- 29.80 in1009.1 mb 0.03 in0.8 mm 0.00 in/hr0.0 mm/hr 0.10 in2.5 mm
03:15 AM 45.3°F7.4°C 45.3°F7.4°C 100% Calm Calm -- 29.80 in1009.1 mb 0.04 in1.0 mm 0.00 in/hr0.0 mm/hr 0.10 in2.5 mm
03:10 AM 45.3°F7.4°C 45.3°F7.4°C 100% Calm Calm -- 29.80 in1009.1 mb 0.04 in1.0 mm 0.00 in/hr0.0 mm/hr 0.10 in2.5 mm
03:05 AM 45.3°F7.4°C 45.3°F7.4°C 100% Calm Calm -- 29.80 in1009.1 mb 0.04 in1.0 mm 0.00 in/hr0.0 mm/hr 0.10 in2.5 mm
03:00 AM 45.3°F7.4°C 45.3°F7.4°C 100% Calm Calm -- 29.81 in1009.5 mb 0.04 in1.0 mm 0.00 in/hr0.0 mm/hr 0.09 in2.3 mm
02:55 AM 45.4°F7.4°C 45.4°F7.4°C 100% Calm Calm -- 29.81 in1009.5 mb 0.05 in1.3 mm 0.00 in/hr0.0 mm/hr 0.09 in2.3 mm
02:50 AM 45.4°F7.4°C 45.4°F7.4°C 100% Calm Calm -- 29.81 in1009.5 mb 0.05 in1.3 mm 0.12 in/hr3.0 mm/hr 0.09 in2.3 mm
02:45 AM 45.5°F7.5°C 45.5°F7.5°C 100% Calm Calm -- 29.81 in1009.5 mb 0.04 in1.0 mm 0.00 in/hr0.0 mm/hr 0.08 in2.0 mm
02:40 AM 45.4°F7.4°C 45.4°F7.4°C 100% Calm Calm -- 29.81 in1009.5 mb 0.04 in1.0 mm 0.00 in/hr0.0 mm/hr 0.08 in2.0 mm
02:35 AM 45.4°F7.4°C 45.4°F7.4°C 100% Calm Calm -- 29.82 in1009.8 mb 0.04 in1.0 mm 0.12 in/hr3.0 mm/hr 0.08 in2.0 mm
02:30 AM 45.4°F7.4°C 45.4°F7.4°C 100% Calm Calm -- 29.82 in1009.8 mb 0.03 in0.8 mm 0.00 in/hr0.0 mm/hr 0.07 in1.8 mm
02:25 AM 45.4°F7.4°C 45.4°F7.4°C 100% Calm Calm -- 29.82 in1009.8 mb 0.03 in0.8 mm 0.00 in/hr0.0 mm/hr 0.07 in1.8 mm
02:20 AM 45.5°F7.5°C 45.5°F7.5°C 100% Calm Calm -- 29.82 in1009.8 mb 0.04 in1.0 mm 0.12 in/hr3.0 mm/hr 0.07 in1.8 mm
02:15 AM 45.4°F7.4°C 45.4°F7.4°C 100% Calm Calm -- 29.82 in1009.8 mb 0.03 in0.8 mm 0.00 in/hr0.0 mm/hr 0.06 in1.5 mm
02:10 AM 45.5°F7.5°C 45.5°F7.5°C 100% Calm Calm -- 29.82 in1009.8 mb 0.03 in0.8 mm 0.12 in/hr3.0 mm/hr 0.06 in1.5 mm
02:05 AM 45.5°F7.5°C 45.5°F7.5°C 100% Calm Calm -- 29.82 in1009.8 mb 0.02 in0.5 mm 0.00 in/hr0.0 mm/hr 0.05 in1.3 mm
02:00 AM 45.5°F7.5°C 45.5°F7.5°C 100% Calm Calm -- 29.82 in1009.8 mb 0.03 in0.8 mm 0.01 in/hr0.3 mm/hr 0.05 in1.3 mm
01:55 AM 45.5°F7.5°C 45.5°F7.5°C 100% Calm Calm -- 29.82 in1009.8 mb 0.02 in0.5 mm 0.00 in/hr0.0 mm/hr 0.04 in1.0 mm
01:50 AM 45.5°F7.5°C 45.5°F7.5°C 100% Calm Calm -- 29.82 in1009.8 mb 0.03 in0.8 mm 0.00 in/hr0.0 mm/hr 0.04 in1.0 mm
01:45 AM 45.5°F7.5°C 45.5°F7.5°C 100% Calm Calm -- 29.83 in1010.2 mb 0.03 in0.8 mm 0.00 in/hr0.0 mm/hr 0.04 in1.0 mm
01:40 AM 45.4°F7.4°C 45.4°F7.4°C 100% Calm Calm -- 29.83 in1010.2 mb 0.03 in0.8 mm 0.00 in/hr0.0 mm/hr 0.04 in1.0 mm
01:35 AM 45.4°F7.4°C 45.4°F7.4°C 100% Calm Calm -- 29.83 in1010.2 mb 0.03 in0.8 mm 0.00 in/hr0.0 mm/hr 0.04 in1.0 mm
01:30 AM 45.4°F7.4°C 45.4°F7.4°C 100% Calm Calm -- 29.83 in1010.2 mb 0.03 in0.8 mm 0.06 in/hr1.5 mm/hr 0.04 in1.0 mm